Time;durP1;ratioP1;P1;durP2;ratioP2;P2;SDS_P1;SDS_P2;PMS_P1;PMS_P2;Temp;Humidity;BMP_temperature;BMP_pressure;BME280_temperature;BME280_humidity;BME280_pressure;Samples;Min_cycle;Max_cycle;Signal;HPM_P1;HPM_P2
2021/08/27 00:02:57;;;;;;;0.55;0.35;;;23.70;99.90;;;;;;20742423;22;20262;-77
2021/08/27 00:13:02;;;;;;;0.35;0.35;;;23.90;99.90;;;;;;20690897;28;20207;-78
2021/08/27 00:23:07;;;;;;;0.50;0.50;;;23.80;99.90;;;;;;20704331;28;20236;-74
2021/08/27 00:33:11;;;;;;;1.85;1.48;;;23.70;99.90;;;;;;20700738;28;20199;-75
2021/08/27 00:43:16;;;;;;;1.13;0.82;;;23.70;99.90;;;;;;20685766;28;20405;-74
2021/08/27 00:53:19;;;;;;;1.85;1.17;;;23.50;99.90;;;;;;20683876;28;20560;-75
2021/08/27 01:03:24;;;;;;;0.57;0.55;;;23.60;99.90;;;;;;20747680;28;20589;-75
2021/08/27 01:13:36;;;;;;;0.65;0.65;;;23.40;99.90;;;;;;20761054;28;20198;-76
2021/08/27 01:23:44;;;;;;;0.45;0.45;;;23.20;99.90;;;;;;20781906;28;20217;-76
2021/08/27 01:33:59;;;;;;;4.32;1.40;;;23.30;99.90;;;;;;20757544;28;20252;-78
2021/08/27 01:44:06;;;;;;;0.77;0.73;;;23.30;99.90;;;;;;20677742;28;20313;-79
2021/08/27 01:54:10;;;;;;;0.77;0.75;;;23.50;99.90;;;;;;20680701;28;20202;-79
2021/08/27 02:04:18;;;;;;;1.40;0.45;;;23.70;99.90;;;;;;20681297;28;20242;-79
2021/08/27 02:14:22;;;;;;;0.95;0.90;;;23.70;99.90;;;;;;20695833;28;20710;-79
2021/08/27 02:24:34;;;;;;;0.40;0.40;;;23.80;99.90;;;;;;20697721;28;20234;-82
2021/08/27 02:34:41;;;;;;;1.08;0.90;;;23.80;99.90;;;;;;20695959;28;20633;-81
2021/08/27 02:44:46;;;;;;;0.70;0.70;;;23.80;99.90;;;;;;20696123;28;20233;-78
2021/08/27 02:54:54;;;;;;;1.58;1.20;;;23.90;99.90;;;;;;20710071;28;20202;-78
2021/08/27 03:05:08;;;;;;;1.25;0.50;;;23.90;99.90;;;;;;20678121;23;20227;-71
2021/08/27 03:15:18;;;;;;;0.82;0.82;;;23.80;99.90;;;;;;20610234;28;20199;-71
2021/08/27 03:25:25;;;;;;;1.98;1.42;;;23.60;99.90;;;;;;20610973;28;20227;-72
2021/08/27 03:35:29;;;;;;;0.50;0.50;;;23.60;99.90;;;;;;20627069;28;20191;-71
2021/08/27 03:45:36;;;;;;;0.32;0.30;;;23.70;99.90;;;;;;20607571;28;20242;-72
2021/08/27 03:55:40;;;;;;;0.20;0.10;;;23.80;99.90;;;;;;20625634;28;20907;-71
2021/08/27 04:06:02;;;;;;;0.52;0.52;;;23.80;99.90;;;;;;20639904;23;20607;-77
2021/08/27 04:16:06;;;;;;;2.50;2.05;;;23.90;99.90;;;;;;20622935;28;20203;-78
2021/08/27 04:26:11;;;;;;;1.73;1.25;;;24.00;99.90;;;;;;20620990;28;20535;-77
2021/08/27 04:36:15;;;;;;;0.20;0.13;;;24.20;99.90;;;;;;20620787;28;20211;-77
2021/08/27 04:46:20;;;;;;;1.67;1.58;;;24.30;99.90;;;;;;20620513;28;20241;-77
2021/08/27 04:56:24;;;;;;;4.90;1.30;;;24.40;99.90;;;;;;20619973;28;20290;-81
2021/08/27 05:06:29;;;;;;;0.80;0.75;;;24.30;99.90;;;;;;20602742;28;20759;-77
2021/08/27 05:16:33;;;;;;;3.42;1.88;;;24.20;99.90;;;;;;20615085;28;20443;-79
2021/08/27 05:26:38;;;;;;;2.30;2.17;;;23.80;99.90;;;;;;20618606;28;20223;-78
2021/08/27 05:36:42;;;;;;;0.70;0.65;;;23.70;99.90;;;;;;20618673;28;20199;-78
2021/08/27 05:46:48;;;;;;;0.70;0.60;;;23.60;99.90;;;;;;20710623;23;20597;-77
2021/08/27 05:56:51;;;;;;;0.60;0.60;;;23.60;99.90;;;;;;20781378;28;20279;-81
2021/08/27 06:06:57;;;;;;;1.45;1.35;;;23.60;99.90;;;;;;20781281;28;20224;-80
2021/08/27 06:17:00;;;;;;;1.85;1.08;;;23.70;99.90;;;;;;20780817;28;20217;-80
2021/08/27 06:27:06;;;;;;;1.60;1.25;;;24.00;99.90;;;;;;20778462;28;20194;-77
2021/08/27 06:37:09;;;;;;;1.40;1.10;;;24.30;99.90;;;;;;20759337;28;20229;-78
2021/08/27 06:47:38;;;;;;;2.75;1.13;;;24.80;99.90;;;;;;20758067;28;20226;-76
2021/08/27 06:58:44;;;;;;;0.85;0.85;;;25.30;99.90;;;;;;20792643;23;20313;-78
2021/08/27 07:08:50;;;;;;;1.33;1.00;;;25.80;99.90;;;;;;20522220;28;20241;-78
2021/08/27 07:18:53;;;;;;;0.98;0.98;;;26.30;99.90;;;;;;20519136;28;20259;-77
2021/08/27 07:28:59;;;;;;;1.27;1.05;;;26.60;99.90;;;;;;20518766;28;20192;-74
2021/08/27 07:39:03;;;;;;;1.50;1.40;;;26.80;99.90;;;;;;20620326;28;20241;-83
2021/08/27 07:49:13;;;;;;;12.35;2.72;;;26.80;99.90;;;;;;20752500;28;20201;-75
2021/08/27 07:59:16;;;;;;;3.67;0.93;;;26.70;99.90;;;;;;20768476;28;20238;-76
2021/08/27 08:09:21;;;;;;;1.05;0.93;;;26.90;99.90;;;;;;20702480;28;20259;-77
2021/08/27 08:19:25;;;;;;;0.95;0.73;;;27.20;99.90;;;;;;20936427;23;20234;-79
2021/08/27 08:29:32;;;;;;;1.23;1.05;;;27.20;99.90;;;;;;20739527;28;20191;-80
2021/08/27 08:39:36;;;;;;;2.60;2.10;;;27.10;99.90;;;;;;20734240;28;20734;-78
2021/08/27 08:49:44;;;;;;;2.33;1.35;;;27.40;99.90;;;;;;20701057;28;20199;-73
2021/08/27 08:59:53;;;;;;;1.25;1.13;;;27.90;99.90;;;;;;20735371;28;20790;-73
2021/08/27 09:09:59;;;;;;;4.03;2.25;;;27.70;99.90;;;;;;20754753;28;20197;-75
2021/08/27 09:20:05;;;;;;;0.82;0.73;;;27.70;99.90;;;;;;20775108;28;20316;-77
2021/08/27 09:30:14;;;;;;;1.20;0.80;;;27.70;99.90;;;;;;20779768;28;20523;-76
2021/08/27 09:40:19;;;;;;;5.43;1.70;;;27.90;99.90;;;;;;20777660;28;20234;-77
2021/08/27 09:50:27;;;;;;;0.70;0.68;;;28.20;99.90;;;;;;20715128;28;20545;-73
2021/08/27 10:00:33;;;;;;;2.05;1.80;;;28.20;99.90;;;;;;20765698;28;21206;-76
2021/08/27 10:10:39;;;;;;;2.90;1.17;;;28.40;99.90;;;;;;20746272;28;20199;-75
2021/08/27 10:20:45;;;;;;;2.15;1.17;;;28.60;99.90;;;;;;20785193;28;20238;-72
2021/08/27 10:30:57;;;;;;;1.17;1.08;;;28.80;99.90;;;;;;20773706;28;20229;-73
2021/08/27 10:41:10;;;;;;;1.55;1.08;;;28.90;99.90;;;;;;20772472;28;20229;-75
2021/08/27 10:51:32;;;;;;;4.82;2.00;;;29.30;99.90;;;;;;20773216;28;20201;-73
2021/08/27 11:01:37;;;;;;;1.88;1.30;;;29.60;99.90;;;;;;20766568;28;20224;-74
2021/08/27 11:12:05;;;;;;;2.10;1.45;;;30.50;99.90;;;;;;20750795;28;20355;-76
2021/08/27 11:22:31;;;;;;;1.92;1.40;;;30.90;99.90;;;;;;20786856;28;20284;-78
2021/08/27 11:32:37;;;;;;;4.38;3.03;;;31.30;99.90;;;;;;20787362;28;20297;-71
2021/08/27 11:42:42;;;;;;;3.75;2.60;;;31.80;99.90;;;;;;20752722;28;20392;-76
2021/08/27 11:52:49;;;;;;;5.13;1.80;;;32.10;99.90;;;;;;20740971;28;20607;-75
2021/08/27 12:02:54;;;;;;;2.05;1.55;;;32.70;99.90;;;;;;20761720;28;20229;-77
2021/08/27 12:13:01;;;;;;;1.88;1.17;;;33.10;99.90;;;;;;20783111;28;20483;-77
2021/08/27 12:23:25;;;;;;;9.15;2.53;;;33.40;99.90;;;;;;20765509;28;20537;-74
2021/08/27 12:33:36;;;;;;;2.47;1.63;;;33.50;99.90;;;;;;20782901;28;20190;-77
2021/08/27 12:43:40;;;;;;;2.90;1.67;;;34.10;99.90;;;;;;20766411;28;20218;-75
2021/08/27 13:05:52;;;;;;;3.95;1.45;;;34.20;99.90;;;;;;20243658;29;20540;-76
2021/08/27 13:16:37;;;;;;;2.20;1.50;;;34.70;99.90;;;;;;20572838;23;20691;-76
2021/08/27 13:38:08;;;;;;;2.55;1.75;;;34.50;99.90;;;;;;20797983;23;20243;-73
2021/08/27 14:10:36;;;;;;;1.67;1.58;;;36.60;99.90;;;;;;21119939;23;20223;-77
2021/08/27 14:20:46;;;;;;;2.22;1.58;;;37.40;99.90;;;;;;20731779;23;20246;-79
2021/08/27 14:31:14;;;;;;;1.52;1.17;;;37.40;99.90;;;;;;20669113;28;20203;-74
2021/08/27 14:41:20;;;;;;;1.33;0.98;;;36.60;99.90;;;;;;20692393;28;20230;-73
2021/08/27 14:51:24;;;;;;;1.58;1.10;;;36.50;99.90;;;;;;20703163;28;20834;-76
2021/08/27 15:01:29;;;;;;;1.13;1.05;;;36.30;99.90;;;;;;20709336;28;20622;-80
2021/08/27 15:11:38;;;;;;;2.13;1.00;;;36.00;99.90;;;;;;20710143;28;20202;-75
2021/08/27 15:21:46;;;;;;;6.03;1.90;;;34.90;99.90;;;;;;20705429;28;20249;-74
2021/08/27 15:31:49;;;;;;;1.42;1.25;;;33.30;99.90;;;;;;20705144;28;20324;-75
2021/08/27 15:41:56;;;;;;;1.73;1.20;;;33.80;99.90;;;;;;20705363;28;20218;-79
2021/08/27 15:52:08;;;;;;;3.03;1.63;;;32.60;99.90;;;;;;20705155;28;20372;-76
2021/08/27 16:02:13;;;;;;;1.25;1.13;;;31.70;99.90;;;;;;20706349;28;20249;-75
2021/08/27 16:12:18;;;;;;;3.83;1.98;;;31.10;99.90;;;;;;20766716;28;20194;-77
2021/08/27 16:22:23;;;;;;;2.22;1.13;;;30.50;99.90;;;;;;20783938;28;20242;-74
2021/08/27 16:32:27;;;;;;;2.65;1.55;;;30.70;99.90;;;;;;20751914;28;20191;-77
2021/08/27 16:42:33;;;;;;;3.00;1.00;;;30.20;99.90;;;;;;20704931;28;20238;-81
2021/08/27 16:52:37;;;;;;;7.00;2.42;;;30.30;99.90;;;;;;20703082;28;20202;-75
2021/08/27 17:02:43;;;;;;;3.75;1.38;;;29.80;99.90;;;;;;20699354;28;21001;-77
2021/08/27 17:12:47;;;;;;;7.15;1.13;;;29.60;99.90;;;;;;20649628;28;20963;-79
2021/08/27 17:22:53;;;;;;;2.95;2.10;;;29.70;99.90;;;;;;20616538;28;20270;-79
2021/08/27 17:32:57;;;;;;;1.50;1.35;;;29.40;99.90;;;;;;20635090;28;20187;-76
2021/08/27 17:43:23;;;;;;;2.22;1.08;;;29.90;99.90;;;;;;20698604;28;20352;-78
2021/08/27 17:53:27;;;;;;;1.98;1.33;;;29.30;99.90;;;;;;20699400;28;20310;-79
2021/08/27 18:03:32;;;;;;;1.58;1.45;;;28.40;99.90;;;;;;20695716;28;20681;-76
2021/08/27 18:13:35;;;;;;;1.40;1.30;;;28.10;99.90;;;;;;20697966;28;20566;-82
2021/08/27 18:23:41;;;;;;;1.13;0.95;;;27.80;99.90;;;;;;20687102;28;20245;-77
2021/08/27 18:33:44;;;;;;;1.17;0.82;;;27.30;99.90;;;;;;20681063;28;20280;-79
2021/08/27 18:43:49;;;;;;;3.85;1.08;;;27.20;99.90;;;;;;20729532;28;20231;-79
2021/08/27 18:53:53;;;;;;;1.63;1.52;;;26.70;99.90;;;;;;20691691;28;20879;-77
2021/08/27 19:03:59;;;;;;;2.50;0.98;;;26.60;99.90;;;;;;20719006;28;20231;-78
2021/08/27 19:14:03;;;;;;;1.17;1.08;;;26.40;99.90;;;;;;20694806;28;20235;-81
2021/08/27 19:24:08;;;;;;;1.67;1.25;;;26.20;99.90;;;;;;20691117;28;20678;-75
2021/08/27 19:34:12;;;;;;;0.73;0.52;;;26.10;99.90;;;;;;20720339;28;20309;-78
2021/08/27 19:44:18;;;;;;;0.38;0.35;;;26.00;99.90;;;;;;20784357;28;20244;-78
2021/08/27 19:54:22;;;;;;;0.73;0.60;;;25.90;99.90;;;;;;20786609;28;20305;-80
2021/08/27 20:04:27;;;;;;;1.65;1.05;;;26.00;99.90;;;;;;20725064;28;20679;-77
2021/08/27 20:14:30;;;;;;;1.08;0.98;;;25.80;99.90;;;;;;20702862;28;20253;-78
2021/08/27 20:24:37;;;;;;;1.15;0.93;;;25.70;99.90;;;;;;20703238;28;20222;-77
2021/08/27 20:34:40;;;;;;;1.85;1.15;;;25.60;99.90;;;;;;20714682;28;20186;-78
2021/08/27 20:44:45;;;;;;;3.90;0.50;;;25.60;99.90;;;;;;20705896;28;20592;-82
2021/08/27 20:54:49;;;;;;;0.85;0.60;;;25.60;99.90;;;;;;20700193;28;20222;-81
2021/08/27 21:04:54;;;;;;;2.83;1.38;;;25.50;99.90;;;;;;20700908;28;20687;-85
2021/08/27 21:14:58;;;;;;;5.82;2.40;;;25.50;99.90;;;;;;20692228;28;20546;-78
2021/08/27 21:25:03;;;;;;;1.00;0.82;;;25.40;99.90;;;;;;20705257;28;20356;-85
2021/08/27 21:35:08;;;;;;;0.60;0.57;;;25.50;99.90;;;;;;20721712;28;20210;-76
2021/08/27 21:45:13;;;;;;;2.25;0.43;;;25.30;99.90;;;;;;20715125;28;20766;-77
2021/08/27 21:55:17;;;;;;;0.90;0.70;;;25.40;99.90;;;;;;20689114;28;20341;-76
2021/08/27 22:05:22;;;;;;;2.33;1.75;;;25.40;99.90;;;;;;20692944;28;20371;-79
2021/08/27 22:15:32;;;;;;;0.73;0.73;;;25.40;99.90;;;;;;20692380;28;20448;-78
2021/08/27 22:25:37;;;;;;;0.32;0.32;;;25.40;99.90;;;;;;20686581;28;20226;-77
2021/08/27 22:35:41;;;;;;;0.93;0.88;;;25.50;99.90;;;;;;20696666;28;20402;-76
2021/08/27 22:45:46;;;;;;;2.70;1.20;;;25.40;99.90;;;;;;20693658;28;20687;-77
2021/08/27 22:55:50;;;;;;;11.77;1.35;;;25.20;99.90;;;;;;20685428;28;20205;-74
2021/08/27 23:05:55;;;;;;;1.63;0.98;;;25.20;99.90;;;;;;20698664;28;20218;-76
2021/08/27 23:15:59;;;;;;;1.15;1.08;;;25.20;99.90;;;;;;20707705;28;20666;-76
2021/08/27 23:26:04;;;;;;;0.68;0.43;;;25.00;99.90;;;;;;20703451;28;20241;-77
2021/08/27 23:36:07;;;;;;;1.00;0.43;;;25.10;99.90;;;;;;20753618;28;20736;-77
2021/08/27 23:46:12;;;;;;;0.75;0.73;;;25.20;99.90;;;;;;20788154;28;20360;-76
2021/08/27 23:56:16;;;;;;;0.65;0.65;;;25.20;99.90;;;;;;20787109;28;20741;-79
